createdAt,value
2019-02-18T00:55:23.879Z,91.50
2019-02-18T00:58:02.995Z,91.60
2019-02-18T01:01:00.131Z,91.60
2019-02-18T01:04:06.469Z,91.70
2019-02-18T01:16:14.116Z,91.60
2019-02-18T01:18:56.912Z,91.70
2019-02-18T01:22:35.267Z,91.70
2019-02-18T01:25:32.658Z,91.60
2019-02-18T01:28:53.661Z,91.60
2019-02-18T01:32:00.172Z,91.50
2019-02-18T01:40:56.075Z,91.30
2019-02-18T05:25:46.313Z,92.30
2019-02-18T05:28:24.660Z,92.50
2019-02-18T05:31:01.268Z,92.50
2019-02-18T05:36:56.229Z,92.20
2019-02-18T05:39:31.881Z,92.40
2019-02-18T05:42:05.933Z,92.30
2019-02-18T05:44:52.626Z,92.30
2019-02-18T05:47:21.977Z,92.50
2019-02-18T05:49:58.152Z,92.50
2019-02-18T05:52:30.501Z,92.60
2019-02-18T05:59:28.827Z,92.60
2019-02-18T06:39:04.851Z,92.80
2019-02-18T06:41:37.436Z,92.70
2019-02-18T06:44:08.394Z,92.70
2019-02-18T06:46:46.190Z,92.90
2019-02-18T06:49:17.466Z,93.00
2019-02-18T06:52:12.547Z,92.80
2019-02-18T06:54:40.128Z,92.70
2019-02-18T06:58:00.761Z,92.90
2019-02-18T07:00:56.670Z,93.00
2019-02-18T07:03:34.771Z,92.90
2019-02-18T07:06:28.140Z,93.00
2019-02-18T07:09:15.487Z,93.20
2019-02-18T07:12:03.055Z,93.30
2019-02-18T07:14:34.374Z,93.30
2019-02-18T07:17:03.825Z,93.30
2019-02-18T07:19:31.775Z,93.20
2019-02-18T07:22:02.671Z,93.20
2019-02-18T07:24:34.549Z,93.40
2019-02-18T07:27:04.394Z,93.40
2019-02-18T07:29:34.094Z,93.30
2019-02-18T07:32:20.875Z,93.40
2019-02-18T07:34:51.559Z,93.40
2019-02-18T07:37:19.083Z,93.30
2019-02-18T07:39:46.842Z,93.30
2019-02-18T07:42:14.855Z,93.40
2019-02-18T07:44:42.518Z,93.30
2019-02-18T07:47:10.063Z,93.50
2019-02-18T07:49:55.857Z,93.70
2019-02-18T07:52:23.384Z,93.10
2019-02-18T07:55:08.770Z,92.50
2019-02-18T07:57:36.907Z,92.10
2019-02-18T08:00:15.525Z,91.70
2019-02-18T08:02:51.820Z,91.60
2019-02-18T08:05:19.866Z,91.80
2019-02-18T08:07:48.330Z,91.60
2019-02-18T08:10:19.244Z,91.30
2019-02-18T08:12:52.526Z,91.10
2019-02-18T08:15:20.586Z,90.30
2019-02-18T08:17:48.939Z,90.20
2019-02-18T08:20:18.628Z,90.00
2019-02-18T08:22:48.392Z,89.30
2019-02-18T08:25:17.406Z,88.60
2019-02-18T08:27:55.846Z,86.80
2019-02-18T08:30:44.481Z,86.10
2019-02-18T08:33:16.284Z,85.40
2019-02-18T08:35:44.815Z,84.10
2019-02-18T08:41:13.314Z,82.50
2019-02-18T08:43:54.342Z,82.50
2019-02-18T08:46:28.311Z,81.90
2019-02-18T08:48:56.463Z,82.40
2019-02-18T08:51:27.299Z,81.90
2019-02-18T08:53:55.635Z,80.10
2019-02-18T08:56:28.825Z,78.60
2019-02-18T08:58:56.352Z,77.80
2019-02-18T09:01:23.870Z,79.00
2019-02-18T09:03:51.418Z,78.60
2019-02-18T09:06:22.178Z,77.90
2019-02-18T09:08:51.522Z,78.00
2019-02-18T09:11:19.370Z,75.80
2019-02-18T09:13:47.840Z,76.30
2019-02-18T09:16:38.317Z,77.30
2019-02-18T09:22:17.481Z,75.30
2019-02-18T09:24:50.802Z,74.50
2019-02-18T09:27:19.158Z,72.90
2019-02-18T09:29:46.925Z,69.70
2019-02-18T09:32:17.206Z,70.00
2019-02-18T09:34:45.027Z,70.10
2019-02-18T09:37:17.009Z,69.10
2019-02-18T09:39:44.607Z,67.70
2019-02-18T09:42:49.422Z,67.30
2019-02-18T09:45:23.772Z,65.50
2019-02-18T09:47:54.092Z,62.20
2019-02-18T09:50:55.881Z,62.60
2019-02-18T09:53:28.898Z,60.80
2019-02-18T09:55:56.871Z,60.60
2019-02-18T09:58:35.755Z,60.80
2019-02-18T10:01:10.247Z,59.00
2019-02-18T10:03:54.943Z,59.10
2019-02-18T10:06:27.393Z,57.60
2019-02-18T10:08:56.381Z,58.80
2019-02-18T10:11:24.194Z,59.70
2019-02-18T10:13:54.509Z,58.10
2019-02-18T10:16:24.841Z,57.80
2019-02-18T10:18:54.996Z,57.00
2019-02-18T10:21:24.563Z,57.90
2019-02-18T10:23:55.033Z,57.80
2019-02-18T10:26:47.435Z,56.90
2019-02-18T10:29:38.876Z,57.00
2019-02-18T10:32:15.643Z,57.60
2019-02-18T10:34:34.797Z,58.30
2019-02-18T10:37:02.547Z,58.80
2019-02-18T10:39:30.153Z,56.60
2019-02-18T10:41:57.771Z,56.40
2019-02-18T10:44:25.281Z,57.80
2019-02-18T10:46:52.897Z,58.50
2019-02-18T10:49:21.690Z,56.80
2019-02-18T10:51:50.410Z,56.20
2019-02-18T10:54:19.044Z,56.00
2019-02-18T10:56:47.759Z,54.00
2019-02-18T10:59:18.576Z,54.50
2019-02-18T11:02:20.746Z,53.30
2019-02-18T11:05:15.753Z,52.80
2019-02-18T11:08:18.257Z,51.80
2019-02-18T11:10:46.858Z,51.80
2019-02-18T11:13:52.889Z,52.70
2019-02-18T11:16:20.945Z,52.20
2019-02-18T11:18:56.582Z,51.50
2019-02-18T11:21:36.337Z,49.60
2019-02-18T11:24:26.330Z,49.60
2019-02-18T11:26:55.685Z,48.70
2019-02-18T11:32:31.093Z,47.20
2019-02-18T11:35:00.631Z,47.60
2019-02-18T11:37:28.957Z,48.30
2019-02-18T11:40:00.990Z,47.90
2019-02-18T11:42:29.159Z,47.30
2019-02-18T11:45:08.994Z,46.70
2019-02-18T11:47:41.179Z,46.00
2019-02-18T11:50:10.264Z,45.90
2019-02-18T11:52:56.275Z,45.30
2019-02-18T11:55:24.814Z,46.50
2019-02-18T11:58:12.521Z,44.80
2019-02-18T12:01:19.255Z,44.80
2019-02-18T12:07:53.931Z,45.60
2019-02-18T12:10:21.538Z,46.40
2019-02-18T12:13:02.665Z,46.20
2019-02-18T12:15:54.530Z,46.40
2019-02-18T12:18:10.098Z,45.90
2019-02-18T12:20:44.409Z,45.40
2019-02-18T12:23:12.421Z,45.90
2019-02-18T12:25:40.681Z,44.80
2019-02-18T12:28:08.901Z,45.00
2019-02-18T12:30:39.459Z,43.40
2019-02-18T12:33:07.362Z,44.20
2019-02-18T12:35:35.106Z,43.10
2019-02-18T12:38:03.291Z,44.20
2019-02-18T12:40:31.574Z,44.30
2019-02-18T12:42:59.344Z,43.90
2019-02-18T12:45:35.828Z,43.90
2019-02-18T12:48:04.238Z,43.70
2019-02-18T12:50:31.908Z,41.90
2019-02-18T12:53:20.236Z,42.70
2019-02-18T12:55:53.606Z,42.50
2019-02-18T12:58:23.651Z,42.20
2019-02-18T13:00:52.806Z,42.20
2019-02-18T13:03:27.121Z,42.60
2019-02-18T13:06:14.089Z,43.20
2019-02-18T13:08:44.458Z,44.00
2019-02-18T13:11:13.195Z,44.30
2019-02-18T13:13:41.607Z,43.70
2019-02-18T13:16:12.102Z,43.60
2019-02-18T13:18:52.513Z,43.20
2019-02-18T13:21:24.904Z,43.00
2019-02-18T13:28:08.203Z,43.90
2019-02-18T13:33:57.236Z,42.60
2019-02-18T13:36:46.700Z,43.00
2019-02-18T13:39:30.559Z,43.40
2019-02-18T13:42:32.849Z,43.00
2019-02-18T13:45:21.796Z,43.50
2019-02-18T13:47:56.140Z,44.00
2019-02-18T13:50:35.447Z,44.20
2019-02-18T13:53:03.883Z,43.80
2019-02-18T13:55:31.901Z,43.60
2019-02-18T13:57:59.769Z,42.00
2019-02-18T14:00:30.953Z,40.80
2019-02-18T14:05:00.896Z,39.40
2019-02-18T14:06:35.935Z,38.50
2019-02-18T14:09:07.420Z,40.00
2019-02-18T14:11:46.990Z,39.70
2019-02-18T14:14:23.863Z,40.30
2019-02-18T14:16:54.968Z,40.90
2019-02-18T14:19:26.649Z,39.50
2019-02-18T14:21:57.781Z,39.50
2019-02-18T14:24:35.902Z,39.10
2019-02-18T14:27:04.132Z,38.70
2019-02-18T14:29:31.937Z,38.50
2019-02-18T14:32:08.591Z,38.10
2019-02-18T14:34:36.208Z,38.60
2019-02-18T14:37:05.896Z,39.10
2019-02-18T14:39:33.734Z,38.90
2019-02-18T14:42:01.568Z,39.30
2019-02-18T14:44:29.328Z,40.10
2019-02-18T14:47:06.706Z,40.40
2019-02-18T14:49:34.594Z,40.70
2019-02-18T14:52:02.824Z,39.70
2019-02-18T14:54:30.926Z,40.60
2019-02-18T14:56:58.852Z,40.00
2019-02-18T14:59:26.677Z,40.80
2019-02-18T15:01:55.234Z,40.70
2019-02-18T15:04:23.026Z,40.30
2019-02-18T15:06:50.796Z,39.20
2019-02-18T15:09:18.907Z,40.00
2019-02-18T15:11:46.713Z,39.00
2019-02-18T15:14:14.967Z,39.30
2019-02-18T15:16:42.621Z,38.20
2019-02-18T15:19:10.671Z,38.00
2019-02-18T15:21:38.263Z,38.20
2019-02-18T15:24:06.264Z,38.60
2019-02-18T15:26:34.101Z,37.60
2019-02-18T15:29:03.290Z,38.60
2019-02-18T15:31:40.269Z,38.50
2019-02-18T15:34:09.681Z,39.20
2019-02-18T15:36:41.654Z,39.00
2019-02-18T15:39:33.714Z,38.60
2019-02-18T15:42:12.407Z,36.50
2019-02-18T15:44:40.228Z,35.80
2019-02-18T15:47:11.533Z,35.90
2019-02-18T15:49:57.406Z,35.70
2019-02-18T15:52:25.494Z,35.90
2019-02-18T15:54:54.270Z,36.20
2019-02-18T15:57:22.266Z,36.30
2019-02-18T16:00:13.392Z,36.20
2019-02-18T16:02:53.656Z,36.70
2019-02-18T16:24:41.335Z,38.20
2019-02-18T16:27:12.234Z,38.50
2019-02-18T16:29:55.715Z,39.20
2019-02-18T16:32:37.517Z,39.80
2019-02-18T16:42:03.418Z,41.10
2019-02-18T16:44:57.309Z,41.50
2019-02-18T16:50:06.340Z,42.80
2019-02-18T16:55:36.489Z,43.60
2019-02-18T16:58:21.456Z,44.10
2019-02-18T17:00:57.850Z,45.20
2019-02-18T17:08:00.277Z,45.10
2019-02-18T17:10:34.842Z,45.60
2019-02-18T17:13:08.812Z,46.70
2019-02-18T17:15:40.613Z,47.60
2019-02-18T17:18:08.847Z,47.90
2019-02-18T17:20:45.407Z,48.00
2019-02-18T17:23:11.284Z,48.40
2019-02-18T17:26:13.611Z,48.70
2019-02-18T17:28:49.829Z,49.30
2019-02-18T17:31:24.643Z,50.10
2019-02-18T17:33:52.683Z,50.80
2019-02-18T17:37:16.946Z,51.10
2019-02-18T17:39:58.623Z,51.80
2019-02-18T17:46:42.391Z,53.10
2019-02-18T17:49:15.332Z,53.70
2019-02-18T17:51:48.365Z,54.40
2019-02-18T17:59:01.835Z,54.60
2019-02-18T18:02:38.985Z,54.10
2019-02-18T18:05:15.430Z,55.70
2019-02-18T18:15:04.859Z,58.10
2019-02-18T18:25:35.045Z,59.60
2019-02-18T18:29:30.811Z,60.00
2019-02-18T18:31:03.457Z,60.50
2019-02-18T18:33:35.120Z,61.10
2019-02-18T18:36:44.833Z,61.30
2019-02-18T18:39:23.459Z,61.80
2019-02-18T18:41:58.574Z,62.30
2019-02-18T18:44:26.464Z,62.90
2019-02-18T18:47:02.355Z,63.30
2019-02-18T18:49:38.310Z,63.70
2019-02-18T18:52:06.394Z,64.30
2019-02-18T18:55:28.457Z,65.00
2019-02-18T18:58:22.801Z,65.40
2019-02-18T19:00:52.658Z,66.30
2019-02-18T19:03:32.185Z,68.50
2019-02-18T19:06:00.868Z,68.90
2019-02-18T19:50:03.744Z,78.40
2019-02-18T22:04:09.252Z,88.20
2019-02-18T22:07:00.683Z,88.40
2019-02-18T22:09:52.280Z,88.90
2019-02-18T22:12:25.523Z,89.00
2019-02-18T22:15:06.603Z,90.40
2019-02-18T22:17:50.432Z,90.10
2019-02-18T22:20:39.215Z,88.50
2019-02-18T22:23:33.008Z,88.30
2019-02-18T22:26:11.627Z,87.90
2019-02-18T22:28:53.795Z,87.80
2019-02-18T22:31:25.026Z,87.30
2019-02-18T22:34:11.291Z,87.30
2019-02-18T22:37:08.658Z,87.70
2019-02-18T22:40:12.923Z,88.20
2019-02-18T22:42:48.329Z,88.60
2019-02-18T22:45:29.458Z,89.10
2019-02-18T23:03:31.432Z,90.20
2019-02-18T23:10:42.966Z,90.50
2019-02-18T23:14:11.526Z,90.70
2019-02-18T23:17:32.963Z,90.70
2019-02-18T23:24:45.554Z,90.80
2019-02-18T23:27:30.436Z,90.90
2019-02-18T23:30:50.391Z,90.90
2019-02-18T23:33:29.488Z,90.80
2019-02-18T23:36:04.781Z,90.80
2019-02-18T23:38:55.654Z,90.90
2019-02-18T23:42:36.061Z,91.10
2019-02-18T23:45:22.102Z,91.10
2019-02-18T23:47:58.876Z,91.00
2019-02-18T23:50:54.186Z,91.10
